createdAt,value
2018-06-20T00:01:23.379Z,63.58
2018-06-20T00:03:50.917Z,63.91
2018-06-20T00:06:18.481Z,63.74
2018-06-20T00:08:50.687Z,63.86
2018-06-20T00:11:18.994Z,63.70
2018-06-20T00:13:46.664Z,64.11
2018-06-20T00:16:14.251Z,64.36
2018-06-20T00:18:41.831Z,63.59
2018-06-20T00:21:09.384Z,64.00
2018-06-20T00:23:36.937Z,64.22
2018-06-20T00:26:04.488Z,64.23
2018-06-20T00:28:32.029Z,64.31
2018-06-20T00:30:59.697Z,64.56
2018-06-20T00:33:27.240Z,64.54
2018-06-20T00:35:54.766Z,64.56
2018-06-20T00:38:22.390Z,64.95
2018-06-20T00:40:49.965Z,64.75
2018-06-20T00:43:17.474Z,65.02
2018-06-20T00:45:45.009Z,64.69
2018-06-20T00:48:12.537Z,64.93
2018-06-20T00:50:40.086Z,64.97
2018-06-20T00:53:07.618Z,64.73
2018-06-20T00:55:46.302Z,64.97
2018-06-20T00:58:13.814Z,64.96
2018-06-20T01:00:41.385Z,64.79
2018-06-20T01:03:08.962Z,65.19
2018-06-20T01:05:36.604Z,64.80
2018-06-20T01:08:04.382Z,64.87
2018-06-20T01:10:31.918Z,64.65
2018-06-20T01:12:59.479Z,64.69
2018-06-20T01:15:27.003Z,65.02
2018-06-20T01:17:54.522Z,65.06
2018-06-20T01:20:22.098Z,64.69
2018-06-20T01:22:49.676Z,65.45
2018-06-20T01:25:17.216Z,65.00
2018-06-20T01:27:44.754Z,65.52
2018-06-20T01:30:12.335Z,65.01
2018-06-20T01:32:39.872Z,64.86
2018-06-20T01:35:07.426Z,65.25
2018-06-20T01:37:35.002Z,64.91
2018-06-20T01:40:02.536Z,64.99
2018-06-20T01:42:30.244Z,65.09
2018-06-20T01:44:57.862Z,65.35
2018-06-20T01:47:25.587Z,65.25
2018-06-20T01:49:53.292Z,65.05
2018-06-20T01:52:20.869Z,64.67
2018-06-20T01:54:48.387Z,64.75
2018-06-20T01:57:15.905Z,64.78
2018-06-20T01:59:43.460Z,65.15
2018-06-20T02:02:10.987Z,64.62
2018-06-20T02:04:38.511Z,64.64
2018-06-20T02:07:06.275Z,64.47
2018-06-20T02:09:33.800Z,64.82
2018-06-20T02:12:01.395Z,64.97
2018-06-20T02:14:28.931Z,65.26
2018-06-20T02:16:56.458Z,64.56
2018-06-20T02:19:24.099Z,64.88
2018-06-20T02:21:51.650Z,65.11
2018-06-20T02:24:19.159Z,65.06
2018-06-20T02:26:46.686Z,64.95
2018-06-20T02:29:14.235Z,64.78
2018-06-20T02:31:41.750Z,64.66
2018-06-20T02:34:09.294Z,65.10
2018-06-20T02:36:36.892Z,64.99
2018-06-20T02:39:06.607Z,64.69
2018-06-20T02:41:34.626Z,64.74
2018-06-20T02:44:02.316Z,65.36
2018-06-20T02:46:29.874Z,65.19
2018-06-20T02:48:57.389Z,65.32
2018-06-20T02:51:25.005Z,64.74
2018-06-20T02:53:52.526Z,64.58
2018-06-20T02:56:20.047Z,64.40
2018-06-20T02:58:47.606Z,64.85
2018-06-20T03:01:15.130Z,65.01
2018-06-20T03:03:42.645Z,64.76
2018-06-20T03:06:10.194Z,65.58
2018-06-20T03:08:37.702Z,64.35
2018-06-20T03:11:05.359Z,64.02
2018-06-20T03:13:32.931Z,64.22
2018-06-20T03:16:00.443Z,64.52
2018-06-20T03:18:28.044Z,64.34
2018-06-20T03:20:55.582Z,64.37
2018-06-20T03:23:23.126Z,64.43
2018-06-20T03:25:50.658Z,64.53
2018-06-20T03:28:18.204Z,64.56
2018-06-20T03:30:45.764Z,64.94
2018-06-20T03:33:13.283Z,64.63
2018-06-20T03:35:40.814Z,64.98
2018-06-20T03:38:08.351Z,64.83
2018-06-20T03:40:35.891Z,64.58
2018-06-20T03:43:03.518Z,64.49
2018-06-20T03:45:31.022Z,64.64
2018-06-20T03:47:58.543Z,64.15
2018-06-20T03:50:26.099Z,63.86
2018-06-20T03:52:53.627Z,64.43
2018-06-20T03:55:21.165Z,64.68
2018-06-20T03:57:48.718Z,64.67
2018-06-20T04:00:16.251Z,65.27
2018-06-20T04:02:44.082Z,65.18
2018-06-20T04:05:12.004Z,65.17
2018-06-20T04:07:39.655Z,65.78
2018-06-20T04:10:07.158Z,65.45
2018-06-20T04:12:34.703Z,65.30
2018-06-20T04:15:02.229Z,65.46
2018-06-20T04:17:29.758Z,66.26
2018-06-20T04:19:57.311Z,66.03
2018-06-20T04:22:24.826Z,65.66
2018-06-20T04:24:52.351Z,65.50
2018-06-20T04:27:19.925Z,65.87
2018-06-20T04:29:47.439Z,65.68
2018-06-20T04:32:14.970Z,66.26
2018-06-20T04:34:42.545Z,65.38
2018-06-20T04:37:10.078Z,65.53
2018-06-20T04:39:37.591Z,64.86
2018-06-20T04:42:05.170Z,65.41
2018-06-20T04:44:32.711Z,65.35
2018-06-20T04:47:00.242Z,64.96
2018-06-20T04:49:27.786Z,65.08
2018-06-20T04:51:55.330Z,64.63
2018-06-20T04:54:22.840Z,64.65
2018-06-20T04:56:50.382Z,64.60
2018-06-20T04:59:17.910Z,64.32
2018-06-20T05:01:45.419Z,64.30
2018-06-20T05:04:13.021Z,63.87
2018-06-20T05:06:40.536Z,63.65
2018-06-20T05:09:13.638Z,63.55
2018-06-20T05:11:41.156Z,63.22
2018-06-20T05:14:08.723Z,63.47
2018-06-20T05:16:36.493Z,62.60
2018-06-20T05:19:04.025Z,62.44
2018-06-20T05:21:31.551Z,62.64
2018-06-20T05:23:59.752Z,62.48
2018-06-20T05:26:27.270Z,62.09
2018-06-20T05:28:54.791Z,61.70
2018-06-20T05:31:22.387Z,61.62
2018-06-20T05:33:49.902Z,60.73
2018-06-20T05:36:17.420Z,59.78
2018-06-20T05:38:44.991Z,59.36
2018-06-20T05:41:12.501Z,58.53
2018-06-20T05:43:40.051Z,58.01
2018-06-20T05:46:07.631Z,57.66
2018-06-20T05:48:35.210Z,57.54
2018-06-20T05:51:02.766Z,57.46
2018-06-20T05:53:30.765Z,56.80
2018-06-20T05:55:58.287Z,56.70
2018-06-20T05:58:25.824Z,55.58
2018-06-20T06:00:53.636Z,56.24
2018-06-20T06:03:21.197Z,55.60
2018-06-20T06:06:00.052Z,55.48
2018-06-20T06:08:27.579Z,55.72
2018-06-20T06:10:55.122Z,55.12
2018-06-20T06:13:22.675Z,55.09
2018-06-20T06:15:50.212Z,55.33
2018-06-20T06:18:17.748Z,55.15
2018-06-20T06:20:46.172Z,55.37
2018-06-20T06:23:20.532Z,55.27
2018-06-20T06:25:48.106Z,55.27
2018-06-20T06:28:15.677Z,54.94
2018-06-20T06:30:43.304Z,54.37
2018-06-20T06:33:10.796Z,53.88
2018-06-20T06:35:38.323Z,52.49
2018-06-20T06:38:05.986Z,52.51
2018-06-20T06:40:33.555Z,52.75
2018-06-20T06:43:01.105Z,52.21
2018-06-20T06:45:28.663Z,51.85
2018-06-20T06:47:56.205Z,52.17
2018-06-20T06:50:23.735Z,51.49
2018-06-20T06:52:51.322Z,51.35
2018-06-20T06:55:18.895Z,51.74
2018-06-20T06:57:46.434Z,51.34
2018-06-20T07:00:14.028Z,50.73
2018-06-20T07:02:41.608Z,50.70
2018-06-20T07:05:09.179Z,49.89
2018-06-20T07:07:36.710Z,49.59
2018-06-20T07:10:04.333Z,49.78
2018-06-20T07:12:31.859Z,49.63
2018-06-20T07:14:59.390Z,49.62
2018-06-20T07:17:26.957Z,49.34
2018-06-20T07:19:54.502Z,48.91
2018-06-20T07:22:22.040Z,48.38
2018-06-20T07:24:49.617Z,48.01
2018-06-20T07:27:17.153Z,47.76
2018-06-20T07:29:44.708Z,47.84
2018-06-20T07:32:12.286Z,46.92
2018-06-20T07:34:39.840Z,46.88
2018-06-20T07:37:07.358Z,47.35
2018-06-20T07:39:35.019Z,46.46
2018-06-20T07:42:02.595Z,46.84
2018-06-20T07:44:30.307Z,46.12
2018-06-20T07:46:57.862Z,45.44
2018-06-20T07:49:25.425Z,44.28
2018-06-20T07:51:52.935Z,45.65
2018-06-20T07:54:20.539Z,44.65
2018-06-20T07:56:48.114Z,43.76
2018-06-20T07:59:15.858Z,43.29
2018-06-20T08:02:00.341Z,43.28
2018-06-20T08:04:33.418Z,43.12
2018-06-20T08:07:06.547Z,42.85
2018-06-20T08:09:39.736Z,42.58
2018-06-20T08:12:12.995Z,42.99
2018-06-20T08:14:46.156Z,41.51
2018-06-20T08:17:19.375Z,41.56
2018-06-20T08:19:52.260Z,40.57
2018-06-20T08:22:20.854Z,40.58
2018-06-20T08:24:57.690Z,39.97
2018-06-20T08:27:25.247Z,38.33
2018-06-20T08:29:52.846Z,38.53
2018-06-20T08:32:20.455Z,38.18
2018-06-20T08:34:48.058Z,38.45
2018-06-20T08:37:15.646Z,39.19
2018-06-20T08:39:43.262Z,39.57
2018-06-20T08:42:10.820Z,40.77
2018-06-20T08:44:38.387Z,41.38
2018-06-20T08:47:06.328Z,42.52
2018-06-20T08:49:33.905Z,42.55
2018-06-20T08:52:01.486Z,41.36
2018-06-20T08:54:29.152Z,41.18
2018-06-20T08:56:56.711Z,39.10
2018-06-20T08:59:24.258Z,37.66
2018-06-20T09:01:51.774Z,38.48
2018-06-20T09:04:24.958Z,38.00
2018-06-20T09:06:58.026Z,38.32
2018-06-20T09:09:31.066Z,39.17
2018-06-20T09:12:04.095Z,39.86
2018-06-20T09:14:36.146Z,40.78
2018-06-20T09:17:09.350Z,41.56
2018-06-20T09:19:44.593Z,42.04
2018-06-20T09:22:12.243Z,41.18
2018-06-20T09:24:39.779Z,40.53
2018-06-20T09:27:07.326Z,40.36
2018-06-20T09:29:34.862Z,37.93
2018-06-20T09:32:02.423Z,37.12
2018-06-20T09:34:30.016Z,35.26
2018-06-20T09:36:57.533Z,34.01
2018-06-20T09:39:25.082Z,33.01
2018-06-20T09:41:52.664Z,32.50
2018-06-20T09:44:20.258Z,31.75
2018-06-20T09:46:47.820Z,31.22
2018-06-20T09:49:15.400Z,30.53
2018-06-20T09:51:42.918Z,30.18
2018-06-20T09:54:10.493Z,29.69
2018-06-20T09:56:38.095Z,30.20
2018-06-20T09:59:11.154Z,28.55
2018-06-20T10:01:44.280Z,29.16
2018-06-20T10:04:17.464Z,29.30
2018-06-20T10:06:50.668Z,28.77
2018-06-20T10:09:23.820Z,28.36
2018-06-20T10:11:57.042Z,27.63
2018-06-20T10:14:24.613Z,28.22
2018-06-20T10:16:52.138Z,26.42
2018-06-20T10:19:19.703Z,26.70
2018-06-20T10:21:47.254Z,29.22
2018-06-20T10:24:14.866Z,30.12
2018-06-20T10:26:42.430Z,30.46
2018-06-20T10:29:10.022Z,29.89
2018-06-20T10:31:37.565Z,28.93
2018-06-20T10:34:05.197Z,28.83
2018-06-20T10:36:32.758Z,27.33
2018-06-20T10:39:00.301Z,28.51
2018-06-20T10:41:32.367Z,28.75
2018-06-20T10:43:59.978Z,27.29
2018-06-20T10:47:34.539Z,27.68
2018-06-20T10:50:02.120Z,27.47
2018-06-20T10:52:29.655Z,27.79
2018-06-20T10:54:57.224Z,27.61
2018-06-20T10:57:30.179Z,26.97
2018-06-20T11:00:03.536Z,27.27
2018-06-20T11:02:36.632Z,26.02
2018-06-20T11:05:09.794Z,25.89
2018-06-20T11:07:42.867Z,26.06
2018-06-20T11:10:15.979Z,26.84
2018-06-20T11:12:49.091Z,25.42
2018-06-20T11:15:16.720Z,25.77
2018-06-20T11:17:44.298Z,25.91
2018-06-20T11:20:18.445Z,24.14
2018-06-20T11:22:47.124Z,23.74
2018-06-20T11:25:14.663Z,23.07
2018-06-20T11:27:42.293Z,22.37
2018-06-20T11:30:09.824Z,23.41
2018-06-20T11:32:37.349Z,23.64
2018-06-20T11:35:05.242Z,24.92
2018-06-20T11:37:32.767Z,26.80
2018-06-20T11:40:00.330Z,27.76
2018-06-20T11:42:27.919Z,25.84
2018-06-20T11:44:55.518Z,23.44
2018-06-20T11:47:28.578Z,22.63
2018-06-20T11:49:56.137Z,21.89
2018-06-20T11:52:29.335Z,21.96
2018-06-20T11:55:02.374Z,21.06
2018-06-20T11:57:29.960Z,23.55
2018-06-20T12:00:03.005Z,24.88
2018-06-20T12:02:36.017Z,23.54
2018-06-20T12:05:09.054Z,23.35
2018-06-20T12:07:42.170Z,24.71
2018-06-20T12:10:15.358Z,22.83
2018-06-20T12:12:48.528Z,21.46
2018-06-20T12:15:21.611Z,19.05
2018-06-20T12:17:54.815Z,18.14
2018-06-20T12:20:27.992Z,18.15
2018-06-20T12:23:01.235Z,18.04
2018-06-20T12:25:34.347Z,17.92
2018-06-20T12:28:07.571Z,17.06
2018-06-20T12:30:40.680Z,17.98
2018-06-20T12:33:13.898Z,17.64
2018-06-20T12:35:47.087Z,18.76
2018-06-20T12:38:20.283Z,18.05
2018-06-20T12:40:53.460Z,18.10
2018-06-20T12:43:26.670Z,17.17
2018-06-20T12:45:59.863Z,18.49
2018-06-20T12:48:27.523Z,18.45
2018-06-20T12:50:55.073Z,17.78
2018-06-20T12:53:22.667Z,16.48
2018-06-20T12:55:50.252Z,16.34
2018-06-20T12:58:17.882Z,16.59
2018-06-20T13:00:45.332Z,17.49
2018-06-20T13:03:12.923Z,18.79
2018-06-20T13:05:40.453Z,17.30
2018-06-20T13:08:07.971Z,16.74
2018-06-20T13:10:35.555Z,17.28
2018-06-20T13:13:03.096Z,16.92
2018-06-20T13:15:30.647Z,16.54
2018-06-20T13:17:58.212Z,15.52
2018-06-20T13:20:25.738Z,15.49
2018-06-20T13:22:53.267Z,17.05
2018-06-20T13:25:20.875Z,16.50
2018-06-20T13:27:48.416Z,16.42
2018-06-20T13:30:16.295Z,17.06
2018-06-20T13:32:49.418Z,19.34
2018-06-20T13:35:22.643Z,16.96
2018-06-20T13:37:55.895Z,16.83
2018-06-20T13:40:29.122Z,16.37
2018-06-20T13:43:02.291Z,16.58
2018-06-20T13:45:35.522Z,16.19
2018-06-20T13:48:08.752Z,16.52
2018-06-20T13:50:36.350Z,16.08
2018-06-20T13:53:03.927Z,17.01
2018-06-20T13:55:31.522Z,18.91
2018-06-20T13:57:59.073Z,21.52
2018-06-20T14:00:26.758Z,22.84
2018-06-20T14:02:55.328Z,21.00
2018-06-20T14:05:22.847Z,21.29
2018-06-20T14:07:50.404Z,18.13
2018-06-20T14:10:18.066Z,16.77
2018-06-20T14:12:45.552Z,17.28
2018-06-20T14:15:13.103Z,20.30
2018-06-20T14:17:40.670Z,19.97
2018-06-20T14:20:13.940Z,19.83
2018-06-20T14:22:41.551Z,19.67
2018-06-20T14:25:09.107Z,21.56
2018-06-20T14:27:36.638Z,21.25
2018-06-20T14:30:04.320Z,21.32
2018-06-20T14:32:37.487Z,21.08
2018-06-20T14:35:10.606Z,22.99
2018-06-20T14:37:43.690Z,22.26
2018-06-20T14:40:16.815Z,19.59
2018-06-20T14:42:49.818Z,19.73
2018-06-20T14:45:22.862Z,18.83
2018-06-20T14:47:50.418Z,19.29
2018-06-20T14:50:17.960Z,19.39
2018-06-20T14:52:45.642Z,19.22
2018-06-20T14:55:13.167Z,19.13
2018-06-20T14:57:40.716Z,19.69
2018-06-20T15:00:08.528Z,20.14
2018-06-20T15:02:37.677Z,21.09
2018-06-20T15:05:06.068Z,22.16
2018-06-20T15:07:35.043Z,23.14
2018-06-20T15:10:04.079Z,23.91
2018-06-20T15:12:32.209Z,24.90
2018-06-20T15:14:59.900Z,26.08
2018-06-20T15:17:29.775Z,27.25
2018-06-20T15:19:57.515Z,27.76
2018-06-20T15:22:25.133Z,28.60
2018-06-20T15:24:52.681Z,28.14
2018-06-20T15:27:26.037Z,28.86
2018-06-20T15:29:59.193Z,28.74
2018-06-20T15:32:32.331Z,29.29
2018-06-20T15:35:05.468Z,29.70
2018-06-20T15:38:43.595Z,29.34
2018-06-20T15:41:11.280Z,29.04
2018-06-20T15:43:38.818Z,29.48
2018-06-20T15:46:06.455Z,29.65
2018-06-20T15:48:34.394Z,29.72
2018-06-20T15:51:02.025Z,30.25
2018-06-20T15:53:29.835Z,30.39
2018-06-20T15:55:57.571Z,30.31
2018-06-20T15:58:25.223Z,30.85
2018-06-20T16:00:52.842Z,30.38
2018-06-20T16:03:21.059Z,30.92
2018-06-20T16:05:48.608Z,31.53
2018-06-20T16:08:16.308Z,31.08
2018-06-20T16:10:43.805Z,30.83
2018-06-20T16:13:11.376Z,32.19
2018-06-20T16:15:38.971Z,31.23
2018-06-20T16:18:06.526Z,31.06
2018-06-20T16:20:39.760Z,31.68
2018-06-20T16:23:12.772Z,31.02
2018-06-20T16:25:45.829Z,31.06
2018-06-20T16:28:19.031Z,30.98
2018-06-20T16:30:46.856Z,31.65
2018-06-20T16:33:14.412Z,30.85
2018-06-20T16:35:42.026Z,30.78
2018-06-20T16:38:09.632Z,31.46
2018-06-20T16:40:37.203Z,31.39
2018-06-20T16:43:04.771Z,31.74
2018-06-20T16:45:32.398Z,31.99
2018-06-20T16:47:59.998Z,31.56
2018-06-20T16:50:27.516Z,31.61
2018-06-20T16:52:55.091Z,31.52
2018-06-20T16:55:22.679Z,31.65
2018-06-20T16:57:50.271Z,31.33
2018-06-20T17:00:17.847Z,31.35
2018-06-20T17:02:45.466Z,31.54
2018-06-20T17:05:13.495Z,31.78
2018-06-20T17:07:41.249Z,32.32
2018-06-20T17:10:08.834Z,31.63
2018-06-20T17:12:42.077Z,31.56
2018-06-20T17:15:15.183Z,31.69
2018-06-20T17:17:48.150Z,31.91
2018-06-20T17:20:21.263Z,31.70
2018-06-20T17:22:54.431Z,32.31
2018-06-20T17:25:29.428Z,32.30
2018-06-20T17:27:57.051Z,32.46
2018-06-20T17:30:24.786Z,31.90
2018-06-20T17:32:52.434Z,32.07
2018-06-20T17:35:20.118Z,32.35
2018-06-20T17:37:47.719Z,32.44
2018-06-20T17:40:15.305Z,33.09
2018-06-20T17:42:42.902Z,33.09
2018-06-20T17:45:10.509Z,33.02
2018-06-20T17:47:38.083Z,33.14
2018-06-20T17:50:06.929Z,32.86
2018-06-20T17:52:34.607Z,33.41
2018-06-20T17:55:02.207Z,33.35
2018-06-20T17:57:29.774Z,33.51
2018-06-20T17:59:57.307Z,33.59
2018-06-20T18:02:24.826Z,33.53
2018-06-20T18:04:57.947Z,33.95
2018-06-20T18:07:31.125Z,33.92
2018-06-20T18:10:04.296Z,34.21
2018-06-20T18:13:03.991Z,34.05
2018-06-20T18:15:37.407Z,34.45
2018-06-20T18:18:05.758Z,34.63
2018-06-20T18:20:33.522Z,34.59
2018-06-20T18:23:01.419Z,34.68
2018-06-20T18:25:29.175Z,35.00
2018-06-20T18:27:56.999Z,35.05
2018-06-20T18:30:24.865Z,36.02
2018-06-20T18:32:52.497Z,35.94
2018-06-20T18:35:20.266Z,36.43
2018-06-20T18:37:47.902Z,36.50
2018-06-20T18:40:15.658Z,36.60
2018-06-20T18:42:43.369Z,36.85
2018-06-20T18:45:11.259Z,36.86
2018-06-20T18:47:44.442Z,36.85
2018-06-20T18:50:12.201Z,37.75
2018-06-20T18:52:39.834Z,38.11
2018-06-20T18:55:07.842Z,38.63
2018-06-20T18:57:41.392Z,39.38
2018-06-20T19:00:14.697Z,39.45
2018-06-20T19:02:47.905Z,40.30
2018-06-20T19:05:21.143Z,39.81
2018-06-20T19:07:54.457Z,40.87
2018-06-20T19:10:22.185Z,40.77
2018-06-20T19:12:49.908Z,40.98
2018-06-20T19:15:17.690Z,41.55
2018-06-20T19:17:45.404Z,41.19
2018-06-20T19:20:13.232Z,41.17
2018-06-20T19:22:41.010Z,41.58
2018-06-20T19:25:08.799Z,41.83
2018-06-20T19:27:36.498Z,41.86
2018-06-20T19:30:04.396Z,41.76
2018-06-20T19:32:32.492Z,42.19
2018-06-20T19:35:00.282Z,41.98
2018-06-20T19:37:28.103Z,41.54
2018-06-20T19:39:55.825Z,41.62
2018-06-20T19:42:24.778Z,41.94
2018-06-20T19:44:52.595Z,42.14
2018-06-20T19:47:20.412Z,41.74
2018-06-20T19:49:48.197Z,42.30
2018-06-20T19:52:15.941Z,42.39
2018-06-20T19:54:43.630Z,42.68
2018-06-20T19:57:11.347Z,42.74
2018-06-20T19:59:39.122Z,43.01
2018-06-20T20:02:06.694Z,43.19
2018-06-20T20:04:34.398Z,43.25
2018-06-20T20:07:01.993Z,42.91
2018-06-20T20:09:29.580Z,43.09
2018-06-20T20:11:57.229Z,43.61
2018-06-20T20:14:24.994Z,43.40
2018-06-20T20:16:52.828Z,43.43
2018-06-20T20:19:20.463Z,43.90
2018-06-20T20:21:48.065Z,43.68
2018-06-20T20:24:15.804Z,43.70
2018-06-20T20:26:43.364Z,43.40
2018-06-20T20:29:10.953Z,43.99
2018-06-20T20:31:38.726Z,43.95
2018-06-20T20:34:06.287Z,43.70
2018-06-20T20:36:34.039Z,43.76
2018-06-20T20:39:02.057Z,44.24
2018-06-20T20:41:29.655Z,43.54
2018-06-20T20:43:57.363Z,43.41
2018-06-20T20:46:24.871Z,43.41
2018-06-20T20:48:52.493Z,43.40
2018-06-20T20:51:20.610Z,43.84
2018-06-20T20:53:48.202Z,43.19
2018-06-20T20:56:15.734Z,43.69
2018-06-20T20:58:43.360Z,43.80
2018-06-20T21:01:10.891Z,43.60
2018-06-20T21:03:38.465Z,43.70
2018-06-20T21:06:06.086Z,44.07
2018-06-20T21:08:33.590Z,43.86
2018-06-20T21:11:01.122Z,43.98
2018-06-20T21:13:28.717Z,44.34
2018-06-20T21:15:56.278Z,44.86
2018-06-20T21:18:23.801Z,44.83
2018-06-20T21:20:51.491Z,45.85
2018-06-20T21:23:19.216Z,45.54
2018-06-20T21:25:46.763Z,45.30
2018-06-20T21:28:14.418Z,45.11
2018-06-20T21:30:41.963Z,45.52
2018-06-20T21:33:09.502Z,45.26
2018-06-20T21:35:37.099Z,45.37
2018-06-20T21:38:06.019Z,45.39
2018-06-20T21:40:33.719Z,44.54
2018-06-20T21:43:01.280Z,44.74
2018-06-20T21:45:28.848Z,44.86
2018-06-20T21:47:56.423Z,45.16
2018-06-20T21:50:24.016Z,44.88
2018-06-20T21:52:51.805Z,44.99
2018-06-20T21:55:19.355Z,45.66
2018-06-20T21:57:46.891Z,46.17
2018-06-20T22:00:14.422Z,46.32
2018-06-20T22:02:41.946Z,46.21
2018-06-20T22:05:09.605Z,46.16
2018-06-20T22:07:37.596Z,47.18
2018-06-20T22:10:05.557Z,46.50
2018-06-20T22:12:33.283Z,47.05
2018-06-20T22:15:01.376Z,47.34
2018-06-20T22:17:28.987Z,46.88
2018-06-20T22:19:56.619Z,48.20
2018-06-20T22:22:24.415Z,46.98
2018-06-20T22:24:53.146Z,47.29
2018-06-20T22:27:21.020Z,47.45
2018-06-20T22:29:48.576Z,48.24
2018-06-20T22:32:16.124Z,47.87
2018-06-20T22:34:43.869Z,47.77
2018-06-20T22:37:11.436Z,47.48
2018-06-20T22:39:38.974Z,47.72
2018-06-20T22:42:06.523Z,48.34
2018-06-20T22:44:34.034Z,48.85
2018-06-20T22:47:01.624Z,47.84
2018-06-20T22:49:29.211Z,48.97
2018-06-20T22:51:56.726Z,48.71
2018-06-20T22:54:24.358Z,48.56
2018-06-20T22:56:51.965Z,48.29
2018-06-20T22:59:19.491Z,47.95
2018-06-20T23:01:47.013Z,48.56
2018-06-20T23:04:14.548Z,48.53
2018-06-20T23:06:42.060Z,49.46
2018-06-20T23:09:10.425Z,48.58
2018-06-20T23:11:43.492Z,48.87
2018-06-20T23:14:11.114Z,50.20
2018-06-20T23:16:38.846Z,48.50
2018-06-20T23:19:06.735Z,49.17
2018-06-20T23:21:34.278Z,48.53
2018-06-20T23:24:01.798Z,49.55
2018-06-20T23:26:29.366Z,51.70
2018-06-20T23:28:57.174Z,49.51
2018-06-20T23:31:24.674Z,49.45
2018-06-20T23:33:52.322Z,50.03
2018-06-20T23:36:19.867Z,50.69
2018-06-20T23:38:47.397Z,51.78
2018-06-20T23:41:14.959Z,51.73
2018-06-20T23:43:43.104Z,52.51
2018-06-20T23:46:10.654Z,52.54
2018-06-20T23:48:38.234Z,52.92
2018-06-20T23:51:05.883Z,52.35
2018-06-20T23:53:33.426Z,52.72
2018-06-20T23:56:00.990Z,52.07
2018-06-20T23:58:28.547Z,52.85
